Forside
METAR-TAF:

METAR-TAF

Lufthavne :

Kunming, Kina

Breddekreds: 25-01N, længdekreds: 102-41E, højde: 1892 m

Aktuelle vejr

Denne rapport blev lavet for 54 minutter siden, kl. 17:00 UTC
Vind 8 kt fra sydvest
Temperatur 14°C
Fugtighed 94%
Tryk 1024 hPa
Sigt 10 km eller mere
Spredte skyer i en højde af 2300 ft
Brudte skyer i en højde af 4300 ft

METAR: ZPPP 151700Z 22004MPS 9999 SCT023 BKN043 14/13 Q1024 NOSIG

Tid: 01:54 (17:54 UTC)

Vejrudsigter

Denne rapport blev lavet for 4 timer og 47 minutter siden, kl. 13:07 UTC
Foreløbig gælder fra 15 på 18 UTC til 16 på 18 UTC
Vind 12 kt fra sydvest
Sigt 10 km eller mere
Spredte skyer i en højde af 2000 ft
Brudte skyer i en højde af 3600 ft

TAF: ZPPP 151307Z 1518/1618 22006MPS 9999 SCT020 BKN036 TX20/1608Z TN13/1523Z

Vejrobservationer og prognoser fra mere end 4000 lufthavne (METAR og TAF).

De gule og røde prikker repræsenterer de meteorologiske stationer.

Flyt musen over at se navnet på stationen.

Så klik over at se vejr observationer og prognoser.

At skifte det kort: Klik på de grønne knapper med et sort kors for at zoome ind; på den grønne knap med en bindestreg for at zoome ud; eller på de grønne pile for tilstødende kort.


METAR-TAF: